createdAt,value
2019-04-28T00:01:01.138Z,1.47
2019-04-28T00:03:31.909Z,2.13
2019-04-28T00:06:01.257Z,1.17
2019-04-28T00:08:31.896Z,1.57
2019-04-28T00:11:01.791Z,3.20
2019-04-28T00:13:32.138Z,1.10
2019-04-28T00:16:01.735Z,1.80
2019-04-28T00:18:31.691Z,1.63
2019-04-28T01:42:49.958Z,1.17
2019-04-28T01:45:20.592Z,2.30
2019-04-28T01:47:50.453Z,2.60
2019-04-28T01:50:20.503Z,1.77
2019-04-28T01:52:51.483Z,1.40
2019-04-28T01:55:21.052Z,1.77
2019-04-28T01:57:50.456Z,1.53
2019-04-28T02:00:25.355Z,1.20
2019-04-28T02:02:51.307Z,2.17
2019-04-28T02:05:20.964Z,1.93
2019-04-28T02:07:50.646Z,1.37
2019-04-28T02:10:21.777Z,1.93
2019-04-28T02:12:50.873Z,2.00
2019-04-28T02:15:20.328Z,2.23
2019-04-28T02:17:51.564Z,1.77
2019-04-28T02:20:21.528Z,1.40
2019-04-28T02:22:56.339Z,3.17
2019-04-28T02:25:25.599Z,1.33
2019-04-28T02:27:57.134Z,1.67
2019-04-28T02:30:41.007Z,2.30
2019-04-28T02:32:56.941Z,1.77
2019-04-28T02:35:26.258Z,1.97
2019-04-28T02:37:55.715Z,1.23
2019-04-28T02:40:25.152Z,0.80
2019-04-28T05:50:40.072Z,2.37
2019-04-28T05:53:19.315Z,2.27
2019-04-28T05:56:00.634Z,1.50
2019-04-28T05:58:57.720Z,2.23
2019-04-28T06:01:53.883Z,1.97
2019-04-28T06:04:25.990Z,1.67
2019-04-28T06:06:59.763Z,2.20
2019-04-28T06:09:36.181Z,2.87
2019-04-28T06:12:06.914Z,1.47
2019-04-28T06:14:36.242Z,2.67
2019-04-28T06:17:05.641Z,1.60
2019-04-28T06:19:35.038Z,3.13
2019-04-28T06:22:04.539Z,0.90
2019-04-28T06:24:34.125Z,2.40
2019-04-28T06:27:03.418Z,2.57
2019-04-28T06:29:32.722Z,3.00
2019-04-28T06:32:02.049Z,4.27
2019-04-28T06:34:31.775Z,3.60
2019-04-28T06:37:01.215Z,3.13
2019-04-28T06:39:30.707Z,2.80
2019-04-28T06:41:59.993Z,2.83
2019-04-28T06:44:29.309Z,2.80
2019-04-28T06:46:58.557Z,1.57
2019-04-28T06:49:27.882Z,1.90
2019-04-28T06:52:04.032Z,1.80
2019-04-28T06:54:33.435Z,3.47
2019-04-28T06:57:02.734Z,2.77
2019-04-28T06:59:31.987Z,1.10
2019-04-28T07:02:01.290Z,3.60
2019-04-28T07:04:30.639Z,2.10
2019-04-28T07:06:59.958Z,2.27
2019-04-28T07:09:29.327Z,2.80
2019-04-28T07:11:58.727Z,2.33
2019-04-28T07:14:28.064Z,2.17
2019-04-28T07:16:57.454Z,2.00
2019-04-28T07:19:26.690Z,2.53
2019-04-28T07:22:05.555Z,1.80
2019-04-28T07:24:35.708Z,2.17
2019-04-28T07:27:06.921Z,1.33
2019-04-28T07:29:36.371Z,2.80
2019-04-28T07:32:05.838Z,1.70
2019-04-28T07:34:35.149Z,2.00
2019-04-28T07:37:06.365Z,2.20
2019-04-28T07:39:35.653Z,2.00
2019-04-28T07:42:05.389Z,3.07
2019-04-28T07:44:34.670Z,2.47
2019-04-28T07:47:04.116Z,2.07
2019-04-28T07:49:34.114Z,1.90
2019-04-28T07:52:25.034Z,1.10
2019-04-28T07:54:54.676Z,1.77
2019-04-28T07:57:24.189Z,2.17
2019-04-28T07:59:54.946Z,2.60
2019-04-28T08:02:34.469Z,2.17
2019-04-28T08:05:09.910Z,1.67
2019-04-28T08:07:41.685Z,2.30
2019-04-28T08:10:11.101Z,2.60
2019-04-28T08:12:40.855Z,2.43
2019-04-28T08:15:13.114Z,2.27
2019-04-28T08:17:42.464Z,1.03
2019-04-28T08:20:11.754Z,0.47
2019-04-28T08:22:41.056Z,2.00
2019-04-28T08:25:11.975Z,1.90
2019-04-28T08:27:41.347Z,1.70
2019-04-28T08:30:10.762Z,2.00
2019-04-28T08:33:00.197Z,1.07
2019-04-28T08:35:29.564Z,1.33
2019-04-28T08:37:59.185Z,1.40
2019-04-28T08:40:28.408Z,0.87
2019-04-28T08:42:57.762Z,2.17
2019-04-28T08:45:30.936Z,1.43
2019-04-28T08:48:00.273Z,1.23
2019-04-28T08:50:29.550Z,1.70
2019-04-28T08:52:58.863Z,1.30
2019-04-28T08:55:28.233Z,1.30
2019-04-28T08:57:57.623Z,1.13
2019-04-28T09:00:26.916Z,1.00
2019-04-28T09:02:56.147Z,1.57
2019-04-28T09:05:25.724Z,2.30
2019-04-28T09:07:55.083Z,1.40
2019-04-28T09:10:24.389Z,1.97
2019-04-28T09:12:53.709Z,0.60
2019-04-28T09:15:24.935Z,1.20
2019-04-28T09:18:02.858Z,0.93
2019-04-28T09:20:32.674Z,1.13
2019-04-28T09:23:02.032Z,1.47
2019-04-28T09:25:31.297Z,1.10
2019-04-28T09:28:00.711Z,0.80
2019-04-28T09:30:29.973Z,1.23
2019-04-28T09:32:59.264Z,1.70
2019-04-28T09:35:29.156Z,1.40
2019-04-28T09:37:58.806Z,1.20
2019-04-28T09:40:28.446Z,1.13
2019-04-28T09:43:15.675Z,1.00
2019-04-28T09:45:53.023Z,1.10
2019-04-28T09:48:22.524Z,0.90
2019-04-28T09:50:51.902Z,0.70
2019-04-28T09:53:21.793Z,0.70
2019-04-28T09:55:51.080Z,0.63
2019-04-28T09:58:27.633Z,0.70
2019-04-28T10:00:57.077Z,0.70
2019-04-28T10:03:26.766Z,0.60
2019-04-28T10:05:56.066Z,0.70
2019-04-28T10:08:25.731Z,1.23
2019-04-28T10:10:55.192Z,1.10
2019-04-28T10:13:24.566Z,0.70
2019-04-28T10:15:54.279Z,0.70
2019-04-28T10:18:23.665Z,0.60
2019-04-28T10:20:59.643Z,0.50
2019-04-28T10:23:36.467Z,0.60
2019-04-28T10:26:05.847Z,0.70
2019-04-28T10:28:35.028Z,0.40
2019-04-28T10:31:09.143Z,0.50
2019-04-28T10:33:40.072Z,0.70
2019-04-28T10:36:09.394Z,0.60
2019-04-28T10:38:40.996Z,0.90
2019-04-28T10:41:15.877Z,0.90
2019-04-28T10:43:45.360Z,0.97
2019-04-28T10:46:17.232Z,0.70
2019-04-28T10:48:46.658Z,0.93
2019-04-28T10:51:17.271Z,1.10
2019-04-28T10:53:46.573Z,1.20
2019-04-28T10:56:15.860Z,1.10
2019-04-28T10:58:46.818Z,1.27
2019-04-28T11:01:16.135Z,1.70
2019-04-28T11:03:47.082Z,1.10
2019-04-28T11:06:16.396Z,1.50
2019-04-28T11:08:55.826Z,1.30
2019-04-28T11:11:26.619Z,1.27
2019-04-28T11:13:56.039Z,1.23
2019-04-28T11:16:29.829Z,1.60
2019-04-28T11:18:59.057Z,1.77
2019-04-28T11:21:28.413Z,1.83
2019-04-28T11:23:58.077Z,1.70
2019-04-28T11:26:27.441Z,2.20
2019-04-28T11:28:57.034Z,2.60
2019-04-28T11:31:26.319Z,2.07
2019-04-28T11:34:19.899Z,2.30
2019-04-28T11:36:49.249Z,2.03
2019-04-28T11:39:23.476Z,2.10
2019-04-28T11:41:52.751Z,2.27
2019-04-28T11:44:22.067Z,2.70
2019-04-28T11:46:51.362Z,3.00
2019-04-28T11:49:20.779Z,2.30
2019-04-28T11:51:52.714Z,2.53
2019-04-28T11:54:24.153Z,2.70
2019-04-28T11:56:53.596Z,2.60
2019-04-28T11:59:22.919Z,3.00
2019-04-28T12:01:52.181Z,2.60
2019-04-28T12:04:21.514Z,2.37
2019-04-28T12:06:51.100Z,1.80
2019-04-28T12:09:34.346Z,3.00
2019-04-28T12:12:08.570Z,2.83
2019-04-28T12:14:56.122Z,2.60
2019-04-28T12:17:45.810Z,3.07
2019-04-28T12:20:18.442Z,2.60
2019-04-28T12:22:47.650Z,3.20
2019-04-28T12:25:17.045Z,3.40
2019-04-28T12:27:46.464Z,2.70
2019-04-28T12:30:15.770Z,2.33
2019-04-28T12:32:45.409Z,2.87
2019-04-28T12:35:14.757Z,1.97
2019-04-28T12:37:44.057Z,2.43
2019-04-28T12:40:13.682Z,1.87
2019-04-28T12:42:42.984Z,2.30
